Time;durP1;ratioP1;P1;durP2;ratioP2;P2;SDS_P1;SDS_P2;PMS_P1;PMS_P2;Temp;Humidity;BMP_temperature;BMP_pressure;BME280_temperature;BME280_humidity;BME280_pressure;Samples;Min_cycle;Max_cycle;Signal;HPM_P1;HPM_P2
2023/01/31 00:01:08;;;;;;;69.40;37.08;;;51.90;2227.20;;;;;;5076034;28;20029;-83
2023/01/31 00:03:34;;;;;;;66.43;38.83;;;51.90;2227.20;;;;;;5075819;28;20021;-84
2023/01/31 00:06:12;;;;;;;84.90;47.22;;;51.90;2227.20;;;;;;5075838;28;20032;-87
2023/01/31 00:08:39;;;;;;;86.80;49.45;;;51.80;2227.20;;;;;;5076433;28;20464;-86
2023/01/31 00:11:04;;;;;;;95.80;52.10;;;51.80;2227.20;;;;;;5076992;28;20139;-84
2023/01/31 00:13:30;;;;;;;115.28;58.15;;;51.80;2227.20;;;;;;5095800;28;20051;-87
2023/01/31 00:15:57;;;;;;;106.10;52.63;;;51.80;2227.20;;;;;;5096153;28;20035;-85
2023/01/31 00:18:23;;;;;;;135.70;63.95;;;51.80;2227.20;;;;;;5095719;28;20118;-86
2023/01/31 00:20:48;;;;;;;123.60;61.42;;;51.70;2227.20;;;;;;5096516;28;20052;-88
2023/01/31 00:23:14;;;;;;;108.82;49.90;;;51.70;2227.20;;;;;;5095689;28;20076;-85
2023/01/31 00:25:40;;;;;;;71.93;37.90;;;51.70;2227.20;;;;;;5095383;28;20028;-87
2023/01/31 00:28:06;;;;;;;67.22;34.45;;;51.80;2227.20;;;;;;5095358;28;20030;-85
2023/01/31 00:30:32;;;;;;;50.75;27.80;;;51.90;2227.20;;;;;;5097147;28;20067;-86
2023/01/31 00:32:57;;;;;;;58.13;28.92;;;52.00;2227.20;;;;;;5095462;28;20054;-84
2023/01/31 00:35:23;;;;;;;74.80;35.72;;;52.10;2227.20;;;;;;5095834;28;20028;-87
2023/01/31 00:37:49;;;;;;;74.97;38.15;;;76.80;2227.20;;;;;;5095390;28;20056;-85
2023/01/31 00:40:14;;;;;;;49.50;26.50;;;76.80;2227.20;;;;;;5095337;28;20024;-86
2023/01/31 00:42:40;;;;;;;43.03;22.67;;;76.90;2227.20;;;;;;5095689;28;20024;-84
2023/01/31 00:45:06;;;;;;;46.53;22.85;;;76.90;2227.20;;;;;;5095821;28;20028;-90
2023/01/31 00:47:32;;;;;;;39.20;20.75;;;76.90;2227.20;;;;;;5096201;28;20028;-84
2023/01/31 00:49:58;;;;;;;37.03;20.95;;;76.90;2227.20;;;;;;5094933;28;20111;-83
2023/01/31 00:52:24;;;;;;;37.45;20.67;;;76.90;2227.20;;;;;;5095670;28;20158;-85
2023/01/31 00:54:49;;;;;;;38.33;18.77;;;77.00;2227.20;;;;;;5094384;28;20027;-86
2023/01/31 00:57:15;;;;;;;42.83;23.45;;;77.00;2227.20;;;;;;5094736;28;20020;-87
2023/01/31 00:59:41;;;;;;;35.55;19.67;;;77.10;2227.20;;;;;;5094788;28;20376;-84
2023/01/31 01:02:06;;;;;;;60.92;37.05;;;77.20;2227.20;;;;;;5090382;28;20036;-88
2023/01/31 01:04:32;;;;;;;43.13;24.30;;;77.20;2227.20;;;;;;5091056;28;20119;-87
2023/01/31 01:06:58;;;;;;;39.25;23.77;;;77.10;2227.20;;;;;;5075003;28;20028;-85
2023/01/31 01:09:24;;;;;;;39.42;21.30;;;77.20;2227.20;;;;;;5091496;28;20051;-88
2023/01/31 01:11:50;;;;;;;29.77;18.10;;;77.20;2227.20;;;;;;5090780;28;20131;-85
2023/01/31 01:14:16;;;;;;;33.20;19.20;;;77.20;2227.20;;;;;;5090871;28;20025;-88
2023/01/31 01:16:42;;;;;;;38.45;22.05;;;77.20;2227.20;;;;;;5091179;28;20047;-86
2023/01/31 01:19:12;;;;;;;35.58;18.77;;;77.20;2227.20;;;;;;5090810;28;20021;-88
2023/01/31 01:21:39;;;;;;;30.52;16.85;;;77.20;2227.20;;;;;;5090715;28;20169;-86
2023/01/31 01:24:07;;;;;;;30.23;17.42;;;77.20;2227.20;;;;;;5090862;28;20024;-85
2023/01/31 01:26:34;;;;;;;32.67;18.42;;;77.30;2227.20;;;;;;5075105;28;20064;-85
2023/01/31 01:29:01;;;;;;;30.85;18.45;;;77.30;2227.20;;;;;;5090405;28;20029;-88
2023/01/31 01:31:30;;;;;;;35.78;20.02;;;77.30;2227.20;;;;;;5092762;28;20064;-87
2023/01/31 01:33:58;;;;;;;30.38;18.08;;;77.20;2227.20;;;;;;5093999;28;20032;-87
2023/01/31 01:36:25;;;;;;;27.02;16.58;;;77.20;2227.20;;;;;;5093603;28;20069;-84
2023/01/31 01:38:51;;;;;;;30.45;15.82;;;77.10;2227.20;;;;;;5094030;28;20024;-87
2023/01/31 01:41:18;;;;;;;31.80;18.17;;;77.20;2227.20;;;;;;5094055;28;20105;-86
2023/01/31 01:43:44;;;;;;;30.25;17.38;;;77.30;2227.20;;;;;;5093498;28;20077;-87
2023/01/31 01:46:16;;;;;;;36.13;18.27;;;77.30;2227.20;;;;;;5094064;28;20024;-88
2023/01/31 01:48:45;;;;;;;25.67;15.38;;;77.20;2227.20;;;;;;5093747;28;20135;-85
2023/01/31 01:51:12;;;;;;;28.10;16.20;;;77.20;2227.20;;;;;;5093634;28;20035;-87
2023/01/31 01:53:42;;;;;;;26.73;16.48;;;77.20;2227.20;;;;;;5094033;28;20028;-84
2023/01/31 01:56:15;;;;;;;31.10;16.15;;;77.20;2227.20;;;;;;5093860;28;20032;-88
2023/01/31 01:59:00;;;;;;;29.35;15.98;;;77.20;2227.20;;;;;;5095142;28;20054;-88
2023/01/31 02:01:30;;;;;;;30.02;16.60;;;77.10;2227.20;;;;;;5093817;28;20119;-85
2023/01/31 02:03:56;;;;;;;30.08;16.58;;;77.20;2227.20;;;;;;5094913;28;20380;-86
2023/01/31 02:06:22;;;;;;;29.67;16.50;;;77.10;2227.20;;;;;;5094792;28;20032;-87
2023/01/31 02:08:48;;;;;;;29.70;16.23;;;77.10;2227.20;;;;;;5098774;28;20031;-80
2023/01/31 02:11:29;;;;;;;33.88;17.77;;;77.10;2227.20;;;;;;5099713;28;20044;-79
2023/01/31 02:14:05;;;;;;;32.95;17.67;;;77.00;2227.20;;;;;;5100979;28;20020;-82
2023/01/31 02:16:30;;;;;;;29.00;17.35;;;77.00;2227.20;;;;;;5094514;28;20020;-86
2023/01/31 02:18:57;;;;;;;31.05;17.95;;;76.90;2227.20;;;;;;5094912;28;20453;-87
2023/01/31 02:22:05;;;;;;;32.42;16.98;;;76.90;2227.20;;;;;;5093862;28;20434;-85
2023/01/31 02:24:55;;;;;;;34.67;17.27;;;76.90;2227.20;;;;;;5073182;28;20043;-88
2023/01/31 02:27:30;;;;;;;34.83;19.35;;;76.90;2227.20;;;;;;5093544;28;20028;-87
2023/01/31 02:30:08;;;;;;;32.58;17.05;;;76.90;2227.20;;;;;;5093710;28;20031;-89
2023/01/31 02:33:02;;;;;;;30.30;16.25;;;76.90;2227.20;;;;;;5093437;28;20080;-87
2023/01/31 02:36:00;;;;;;;34.88;17.63;;;77.00;2227.20;;;;;;5093337;28;20056;-86
2023/01/31 02:38:33;;;;;;;30.88;16.40;;;77.10;2227.20;;;;;;5093142;28;20024;-86
2023/01/31 02:41:26;;;;;;;28.27;17.00;;;77.10;2227.20;;;;;;5093650;28;20028;-86
2023/01/31 02:47:07;;;;;;;31.38;17.15;;;77.20;2227.20;;;;;;5094424;28;20081;-86
2023/01/31 02:49:38;;;;;;;31.05;16.85;;;77.20;2227.20;;;;;;5094303;28;20095;-85
2023/01/31 02:52:23;;;;;;;39.25;21.88;;;77.30;2227.20;;;;;;5093169;28;20028;-86
2023/01/31 02:57:54;;;;;;;30.45;17.05;;;77.40;2227.20;;;;;;5094491;28;20031;-87
2023/01/31 03:00:21;;;;;;;33.42;19.63;;;77.40;2227.20;;;;;;5092915;28;20024;-87
2023/01/31 03:02:46;;;;;;;32.50;16.90;;;77.40;2227.20;;;;;;5092947;28;20039;-87
2023/01/31 03:05:18;;;;;;;31.63;16.33;;;77.40;2227.20;;;;;;5092871;28;20025;-85
2023/01/31 03:07:48;;;;;;;24.77;14.25;;;77.40;2227.20;;;;;;5094243;28;20456;-86
2023/01/31 03:10:29;;;;;;;27.30;14.35;;;77.50;2227.20;;;;;;5092824;28;20035;-86
2023/01/31 03:13:19;;;;;;;21.17;13.85;;;77.50;2227.20;;;;;;5092963;28;20040;-86
2023/01/31 03:19:19;;;;;;;20.80;13.05;;;77.60;2227.20;;;;;;5111745;28;20022;-87
2023/01/31 03:21:52;;;;;;;25.70;14.20;;;77.60;2227.20;;;;;;5103226;28;20035;-84
2023/01/31 03:24:18;;;;;;;23.00;11.88;;;77.70;2227.20;;;;;;5104091;28;20024;-85
2023/01/31 03:26:45;;;;;;;20.05;12.00;;;77.70;2227.20;;;;;;5104159;28;20028;-85
2023/01/31 03:29:15;;;;;;;21.20;13.02;;;77.70;2227.20;;;;;;5102880;28;20048;-86
2023/01/31 03:31:56;;;;;;;21.83;11.32;;;102.40;2227.20;;;;;;5096619;28;20130;-85
2023/01/31 03:34:21;;;;;;;22.38;12.40;;;102.40;2227.20;;;;;;5096456;28;20024;-88
2023/01/31 03:36:55;;;;;;;18.67;12.00;;;102.40;2227.20;;;;;;5096165;28;20027;-87
2023/01/31 03:39:43;;;;;;;19.75;12.57;;;102.40;2227.20;;;;;;5096084;28;20028;-87
2023/01/31 03:42:45;;;;;;;20.23;11.00;;;102.40;2227.20;;;;;;5095961;28;20476;-85
2023/01/31 03:45:18;;;;;;;17.73;11.23;;;102.50;2227.20;;;;;;5076659;28;20040;-86
2023/01/31 03:47:48;;;;;;;20.70;10.88;;;102.50;2227.20;;;;;;5095787;28;20055;-85
2023/01/31 03:50:27;;;;;;;21.00;12.00;;;102.50;2227.20;;;;;;5096530;28;20028;-87
2023/01/31 03:53:13;;;;;;;17.60;11.43;;;102.50;2227.20;;;;;;5084802;28;20127;-86
2023/01/31 03:55:46;;;;;;;25.60;14.93;;;102.50;2227.20;;;;;;5075757;28;20028;-85
2023/01/31 03:58:13;;;;;;;18.60;11.00;;;102.50;2227.20;;;;;;5074986;28;20081;-88
2023/01/31 04:00:42;;;;;;;21.40;11.63;;;102.50;2227.20;;;;;;5075099;28;20059;-86
2023/01/31 04:03:31;;;;;;;20.02;12.10;;;102.60;2227.20;;;;;;5074987;28;20028;-88
2023/01/31 04:05:56;;;;;;;23.10;12.48;;;102.60;2227.20;;;;;;5074892;28;20025;-85
2023/01/31 04:08:23;;;;;;;16.42;10.15;;;102.60;2227.20;;;;;;5075371;28;20024;-88
2023/01/31 04:10:49;;;;;;;15.80;9.60;;;102.60;2227.20;;;;;;5074928;28;20044;-85
2023/01/31 04:13:15;;;;;;;19.23;10.57;;;102.60;2227.20;;;;;;5075360;28;20040;-87
2023/01/31 04:15:41;;;;;;;16.50;10.50;;;102.70;2227.20;;;;;;5074954;28;20036;-87
2023/01/31 04:18:06;;;;;;;18.15;11.45;;;102.70;2227.20;;;;;;5075155;28;20032;-86
2023/01/31 04:20:32;;;;;;;20.90;12.95;;;102.70;2227.20;;;;;;5075061;28;20488;-87
2023/01/31 04:22:58;;;;;;;19.92;11.20;;;102.70;2227.20;;;;;;5076241;28;20032;-86
2023/01/31 04:25:25;;;;;;;21.77;13.05;;;102.80;2227.20;;;;;;5075573;28;20024;-86
2023/01/31 04:27:50;;;;;;;39.10;21.10;;;102.70;2227.20;;;;;;5075517;28;20086;-82
2023/01/31 04:30:16;;;;;;;50.03;30.98;;;102.70;2227.20;;;;;;5074938;28;20020;-86
2023/01/31 04:32:42;;;;;;;56.75;33.20;;;102.60;2227.20;;;;;;5074745;28;20035;-86
2023/01/31 04:35:08;;;;;;;57.15;35.67;;;102.40;2227.20;;;;;;5074738;28;20387;-87
2023/01/31 04:37:34;;;;;;;59.75;35.13;;;77.70;2227.20;;;;;;5074608;28;20526;-89
2023/01/31 04:40:00;;;;;;;64.10;37.92;;;77.70;2227.20;;;;;;5074663;28;20028;-85
2023/01/31 04:42:26;;;;;;;67.30;42.13;;;77.60;2227.20;;;;;;5074628;28;20028;-86
2023/01/31 04:44:52;;;;;;;68.00;41.22;;;77.60;2227.20;;;;;;5075026;28;20457;-85
2023/01/31 04:47:17;;;;;;;75.85;41.03;;;77.60;2227.20;;;;;;5074313;28;20073;-87
2023/01/31 04:49:43;;;;;;;73.55;42.58;;;77.40;2227.20;;;;;;5074617;28;20031;-87
2023/01/31 04:52:09;;;;;;;77.55;41.88;;;77.40;2227.20;;;;;;5075516;28;20095;-88
2023/01/31 04:54:35;;;;;;;85.25;47.08;;;77.30;2227.20;;;;;;5074568;28;20063;-87
2023/01/31 04:57:02;;;;;;;83.72;45.42;;;77.30;2227.20;;;;;;5074394;28;20020;-85
2023/01/31 04:59:27;;;;;;;91.60;52.53;;;77.20;2227.20;;;;;;5074384;28;20021;-88
2023/01/31 05:01:53;;;;;;;104.07;53.95;;;77.20;2227.20;;;;;;5074292;28;20044;-87
2023/01/31 05:04:21;;;;;;;66.28;40.45;;;77.30;2227.20;;;;;;5074134;28;20036;-89
2023/01/31 05:06:46;;;;;;;42.88;25.80;;;77.40;2227.20;;;;;;5074122;28;20029;-88
2023/01/31 05:09:12;;;;;;;34.00;21.80;;;77.60;2227.20;;;;;;5074397;28;20025;-87
2023/01/31 05:11:38;;;;;;;20.30;11.57;;;77.60;2227.20;;;;;;5073599;28;20052;-85
2023/01/31 05:14:04;;;;;;;20.98;12.80;;;77.50;2227.20;;;;;;5073931;28;20020;-87
2023/01/31 05:16:29;;;;;;;24.58;17.00;;;77.50;2227.20;;;;;;5073921;28;20036;-84
2023/01/31 05:18:55;;;;;;;25.05;14.65;;;77.50;2227.20;;;;;;5073944;28;20191;-87
2023/01/31 05:21:21;;;;;;;22.95;13.20;;;77.50;2227.20;;;;;;5073944;28;20060;-88
2023/01/31 05:23:47;;;;;;;22.40;13.82;;;77.40;2227.20;;;;;;5073600;28;20112;-85
2023/01/31 05:26:12;;;;;;;48.30;29.65;;;77.40;2227.20;;;;;;5074841;28;20033;-87
2023/01/31 05:28:38;;;;;;;59.08;31.00;;;77.50;2227.20;;;;;;5074782;28;20029;-85
2023/01/31 05:31:06;;;;;;;51.47;28.23;;;77.50;2227.20;;;;;;5073635;28;20044;-88
2023/01/31 05:33:32;;;;;;;63.40;33.42;;;77.60;2227.20;;;;;;5073526;28;20104;-86
2023/01/31 05:35:59;;;;;;;65.78;43.70;;;77.50;2227.20;;;;;;5073613;28;20029;-87
2023/01/31 05:38:25;;;;;;;57.53;37.30;;;77.40;2227.20;;;;;;5073624;28;20029;-86
2023/01/31 05:40:51;;;;;;;54.30;30.60;;;77.50;2227.20;;;;;;5073074;28;20073;-87
2023/01/31 05:43:17;;;;;;;38.67;22.58;;;77.50;2227.20;;;;;;5073294;28;20029;-86
2023/01/31 05:45:43;;;;;;;25.65;16.80;;;77.50;2227.20;;;;;;5073631;28;20028;-87
2023/01/31 05:48:09;;;;;;;23.38;15.30;;;77.50;2227.20;;;;;;5074872;28;20025;-85
2023/01/31 05:50:35;;;;;;;33.08;18.58;;;77.60;2227.20;;;;;;5074545;28;20056;-86
2023/01/31 05:53:02;;;;;;;26.90;15.98;;;77.50;2227.20;;;;;;5072971;28;20042;-87
2023/01/31 05:55:28;;;;;;;25.83;15.57;;;77.50;2227.20;;;;;;5073321;28;20537;-85
2023/01/31 05:57:54;;;;;;;28.63;16.83;;;77.40;2227.20;;;;;;5072601;28;20025;-85
2023/01/31 06:00:21;;;;;;;61.58;35.65;;;77.50;2227.20;;;;;;5074619;28;20055;-85
2023/01/31 06:02:49;;;;;;;145.82;75.82;;;77.40;2227.20;;;;;;5073295;28;20060;-85
2023/01/31 06:05:15;;;;;;;91.47;51.38;;;77.20;2227.20;;;;;;5073213;28;20035;-85
2023/01/31 06:07:41;;;;;;;183.88;97.63;;;77.10;2227.20;;;;;;5072975;28;20456;-86
2023/01/31 06:10:09;;;;;;;110.05;63.42;;;77.00;2227.20;;;;;;5074124;28;20025;-87
2023/01/31 06:12:35;;;;;;;40.03;23.58;;;77.00;2227.20;;;;;;5072801;28;20128;-87
2023/01/31 06:15:01;;;;;;;46.72;29.25;;;77.10;2227.20;;;;;;5072572;28;20089;-87
2023/01/31 06:17:26;;;;;;;40.17;25.17;;;77.20;2227.20;;;;;;5073202;28;20024;-87
2023/01/31 06:19:52;;;;;;;31.10;17.25;;;77.30;2227.20;;;;;;5073588;28;20376;-84
2023/01/31 06:22:18;;;;;;;21.95;13.38;;;77.40;2227.20;;;;;;5073836;28;20024;-87
2023/01/31 06:24:44;;;;;;;35.67;20.15;;;77.40;2227.20;;;;;;5075010;28;20025;-86
2023/01/31 06:27:10;;;;;;;38.83;23.15;;;77.40;2227.20;;;;;;5078673;28;20028;-80
2023/01/31 06:29:36;;;;;;;38.67;24.40;;;77.50;2227.20;;;;;;5078333;28;20409;-80
2023/01/31 06:32:02;;;;;;;39.17;23.60;;;77.50;2227.20;;;;;;5076946;28;20039;-86
2023/01/31 06:34:28;;;;;;;33.95;19.52;;;77.60;2227.20;;;;;;5074212;28;20024;-85
2023/01/31 06:36:53;;;;;;;31.88;18.73;;;77.60;2227.20;;;;;;5074720;28;20028;-85
2023/01/31 06:39:19;;;;;;;30.75;18.67;;;77.60;2227.20;;;;;;5072805;28;20024;-84
2023/01/31 06:41:45;;;;;;;23.85;13.50;;;77.60;2227.20;;;;;;5072924;28;20032;-83
2023/01/31 06:44:10;;;;;;;20.50;12.95;;;77.60;2227.20;;;;;;5072754;28;20020;-86
2023/01/31 06:46:36;;;;;;;28.45;16.95;;;77.60;2227.20;;;;;;5074164;28;20103;-85
2023/01/31 06:49:02;;;;;;;21.38;13.50;;;77.60;2227.20;;;;;;5072766;28;20031;-87
2023/01/31 06:51:28;;;;;;;17.52;11.18;;;77.70;2227.20;;;;;;5073717;28;20044;-87
2023/01/31 06:53:55;;;;;;;19.15;12.77;;;77.70;2227.20;;;;;;5074123;28;20036;-85
2023/01/31 06:56:21;;;;;;;17.25;10.95;;;77.70;2227.20;;;;;;5076443;28;20085;-85
2023/01/31 06:58:47;;;;;;;14.82;9.43;;;77.70;2227.20;;;;;;5076562;28;20060;-84
2023/01/31 07:01:14;;;;;;;23.25;14.45;;;77.70;2227.20;;;;;;5076471;28;20054;-84
2023/01/31 07:03:40;;;;;;;27.30;14.50;;;77.70;2227.20;;;;;;5077401;28;20024;-85
2023/01/31 07:06:07;;;;;;;40.85;18.05;;;77.70;2227.20;;;;;;5076281;28;20025;-86
2023/01/31 07:08:33;;;;;;;25.05;16.48;;;77.70;2227.20;;;;;;5076254;28;20488;-86
2023/01/31 07:11:02;;;;;;;24.27;13.60;;;77.70;2227.20;;;;;;5075656;28;20074;-87
2023/01/31 07:13:28;;;;;;;25.38;15.82;;;102.40;2227.20;;;;;;5076224;28;20032;-84
2023/01/31 07:15:55;;;;;;;18.77;13.38;;;102.90;2227.20;;;;;;5076089;28;20033;-85
2023/01/31 07:18:21;;;;;;;28.17;17.23;;;77.70;2227.20;;;;;;5075951;28;20111;-86
2023/01/31 07:20:46;;;;;;;21.73;12.93;;;77.70;2227.20;;;;;;5076123;28;20045;-86
2023/01/31 07:23:12;;;;;;;19.20;11.38;;;77.70;2227.20;;;;;;5076070;28;20066;-85
2023/01/31 07:25:38;;;;;;;19.88;12.07;;;77.70;2227.20;;;;;;5075812;28;20021;-86
2023/01/31 07:28:04;;;;;;;16.75;10.15;;;102.80;2227.20;;;;;;5075966;28;20380;-85
2023/01/31 07:30:30;;;;;;;15.57;10.45;;;102.40;2227.20;;;;;;5075749;28;20021;-87
2023/01/31 07:32:55;;;;;;;19.60;9.85;;;77.70;2227.20;;;;;;5075609;28;20464;-84
2023/01/31 07:35:22;;;;;;;18.40;10.05;;;77.70;2227.20;;;;;;5075603;28;20164;-86
2023/01/31 07:37:50;;;;;;;20.05;11.70;;;77.70;2227.20;;;;;;5075802;28;20376;-84
2023/01/31 07:40:16;;;;;;;22.55;13.50;;;77.70;2227.20;;;;;;5075418;28;20024;-84
2023/01/31 07:42:41;;;;;;;22.02;13.10;;;102.40;2227.20;;;;;;5075483;28;20120;-85
2023/01/31 07:45:10;;;;;;;18.23;13.25;;;102.40;2227.20;;;;;;5075608;28;20031;-84
2023/01/31 07:47:36;;;;;;;22.00;11.95;;;102.40;2227.20;;;;;;5075377;28;20422;-84
2023/01/31 07:50:02;;;;;;;22.52;12.90;;;102.40;2227.20;;;;;;5092785;28;20028;-84
2023/01/31 07:52:27;;;;;;;20.90;13.27;;;102.40;2227.20;;;;;;5095288;28;20123;-85
2023/01/31 07:54:53;;;;;;;24.83;13.02;;;102.50;2227.20;;;;;;5095741;28;20055;-84
2023/01/31 07:57:19;;;;;;;19.95;13.75;;;102.50;2227.20;;;;;;5095580;28;20028;-86
2023/01/31 07:59:45;;;;;;;22.85;16.67;;;102.50;2227.20;;;;;;5095641;28;20024;-85
2023/01/31 08:05:00;;;;;;;45.67;22.80;;;102.50;2227.20;;;;;;5075645;28;20078;-88
2023/01/31 08:07:27;;;;;;;20.77;12.07;;;102.60;2227.20;;;;;;5075227;28;20028;-84
2023/01/31 08:09:52;;;;;;;19.33;11.95;;;102.60;2227.20;;;;;;5075431;28;20028;-84
2023/01/31 08:12:18;;;;;;;20.75;12.65;;;102.70;2227.20;;;;;;5074961;28;20407;-85
2023/01/31 08:14:44;;;;;;;28.23;15.77;;;102.70;2227.20;;;;;;5076386;28;20062;-85
2023/01/31 08:17:10;;;;;;;33.05;17.02;;;102.80;2227.20;;;;;;5075204;28;20116;-86
2023/01/31 08:19:36;;;;;;;20.90;12.10;;;102.80;2227.20;;;;;;5075141;28;20025;-85
2023/01/31 08:22:06;;;;;;;24.83;13.38;;;102.90;2227.20;;;;;;5075036;28;20028;-86
2023/01/31 08:24:32;;;;;;;21.85;12.07;;;102.80;2227.20;;;;;;5076369;28;20055;-87
2023/01/31 08:26:58;;;;;;;15.90;9.55;;;102.80;2227.20;;;;;;5075035;28;20029;-84
2023/01/31 08:29:25;;;;;;;25.67;13.65;;;102.80;2227.20;;;;;;5076888;28;20029;-87
2023/01/31 08:31:51;;;;;;;33.78;20.95;;;102.50;2227.20;;;;;;5094950;28;20056;-87
2023/01/31 08:34:17;;;;;;;26.67;17.38;;;102.80;2227.20;;;;;;5094390;28;20059;-86
2023/01/31 08:36:43;;;;;;;40.47;23.33;;;102.80;2227.20;;;;;;5094815;28;20498;-87
2023/01/31 08:39:09;;;;;;;38.58;21.23;;;102.90;2227.20;;;;;;5094870;28;20119;-86
2023/01/31 08:41:36;;;;;;;93.60;41.72;;;102.90;2227.20;;;;;;5094853;28;20024;-84
2023/01/31 08:44:03;;;;;;;36.85;20.80;;;102.90;2227.20;;;;;;5094781;28;20028;-86
2023/01/31 08:46:32;;;;;;;47.47;27.38;;;103.00;2227.20;;;;;;5094893;28;20035;-87
2023/01/31 08:48:59;;;;;;;92.15;40.40;;;102.90;2227.20;;;;;;5094863;28;20024;-86
2023/01/31 08:51:25;;;;;;;59.40;32.38;;;103.00;2227.20;;;;;;5094759;28;20060;-85
2023/01/31 08:53:51;;;;;;;45.90;24.17;;;103.00;2227.20;;;;;;5101180;28;20478;-84
2023/01/31 08:56:20;;;;;;;32.40;20.20;;;102.80;2227.20;;;;;;5095158;28;20024;-86
2023/01/31 08:58:45;;;;;;;99.10;58.95;;;103.00;2227.20;;;;;;5097514;28;20035;-85
2023/01/31 09:01:14;;;;;;;54.72;33.65;;;103.00;2227.20;;;;;;5119128;28;20016;-82
2023/01/31 09:03:40;;;;;;;52.72;28.58;;;103.10;2227.20;;;;;;5118553;28;20091;-86
2023/01/31 09:06:09;;;;;;;36.80;22.95;;;103.10;2227.20;;;;;;5114649;28;20024;-84
2023/01/31 09:08:35;;;;;;;40.97;20.38;;;103.10;2227.20;;;;;;5110693;28;20024;-85
2023/01/31 09:11:02;;;;;;;34.53;18.48;;;103.20;2227.20;;;;;;5106297;28;20123;-86
2023/01/31 09:13:29;;;;;;;28.08;15.35;;;103.20;2227.20;;;;;;5095304;28;20052;-83
2023/01/31 09:15:58;;;;;;;70.68;35.55;;;103.30;2227.20;;;;;;5096046;28;20029;-83
2023/01/31 09:18:24;;;;;;;42.78;21.88;;;103.30;2227.20;;;;;;5095700;28;20024;-84
2023/01/31 09:20:50;;;;;;;19.75;10.10;;;103.30;2227.20;;;;;;5097534;28;20031;-87
2023/01/31 09:23:16;;;;;;;34.13;21.40;;;103.30;2227.20;;;;;;5096513;28;20024;-83
2023/01/31 09:25:41;;;;;;;33.90;18.45;;;103.30;2227.20;;;;;;5096974;28;20482;-84
2023/01/31 09:28:07;;;;;;;33.38;20.85;;;128.00;2252.80;;;;;;5096466;28;20024;-82
2023/01/31 09:30:33;;;;;;;28.50;16.90;;;128.00;2252.80;;;;;;5095411;28;20089;-82
2023/01/31 09:33:00;;;;;;;13.18;8.40;;;128.00;2252.80;;;;;;5097798;28;20475;-85
2023/01/31 09:35:27;;;;;;;28.42;16.50;;;103.30;2227.20;;;;;;5094129;28;20114;-82
2023/01/31 09:37:52;;;;;;;17.38;10.00;;;103.30;2227.20;;;;;;5093720;28;20024;-79
2023/01/31 09:40:23;;;;;;;18.58;11.25;;;103.30;2227.20;;;;;;5092859;28;20031;-81
2023/01/31 09:42:50;;;;;;;22.00;10.63;;;103.30;2227.20;;;;;;5092975;28;20035;-83
2023/01/31 09:45:33;;;;;;;55.35;18.73;;;103.30;2227.20;;;;;;5092946;28;20031;-82
2023/01/31 09:48:01;;;;;;;91.82;17.90;;;128.00;2252.80;;;;;;5092978;28;20028;-82
2023/01/31 09:50:39;;;;;;;28.88;13.68;;;128.10;2252.80;;;;;;5092966;28;20387;-84
2023/01/31 09:53:05;;;;;;;22.85;13.98;;;128.10;2252.80;;;;;;5092963;28;20051;-79
2023/01/31 09:55:35;;;;;;;23.83;15.45;;;128.10;2252.80;;;;;;5093929;28;20115;-76
2023/01/31 09:58:35;;;;;;;25.13;14.07;;;128.10;2252.80;;;;;;5093302;28;20020;-77
2023/01/31 10:01:24;;;;;;;24.98;14.27;;;128.10;2252.80;;;;;;5096976;28;20091;-84
2023/01/31 10:04:29;;;;;;;15.15;8.70;;;128.10;2252.80;;;;;;5098996;28;20031;-78
2023/01/31 10:07:10;;;;;;;19.48;11.02;;;128.00;2252.80;;;;;;5105884;28;20016;-82
2023/01/31 10:09:45;;;;;;;14.68;8.80;;;128.00;2252.80;;;;;;5093869;28;20478;-83
2023/01/31 10:12:13;;;;;;;22.40;11.75;;;103.30;2227.20;;;;;;5092481;28;20127;-79
2023/01/31 10:14:46;;;;;;;18.70;13.63;;;103.30;2227.20;;;;;;5092713;28;20024;-80
2023/01/31 10:17:37;;;;;;;20.80;14.25;;;128.10;2252.80;;;;;;5094656;28;20020;-80
2023/01/31 10:20:07;;;;;;;16.88;10.98;;;128.00;2252.80;;;;;;5093146;28;20031;-79
2023/01/31 10:22:45;;;;;;;22.40;9.73;;;128.00;2252.80;;;;;;5093422;28;20035;-80
2023/01/31 10:25:27;;;;;;;41.70;19.92;;;128.10;2252.80;;;;;;5094558;28;20035;-80
2023/01/31 10:28:11;;;;;;;61.33;28.50;;;128.10;2252.80;;;;;;5094185;28;20487;-81
2023/01/31 10:31:09;;;;;;;72.70;38.25;;;128.10;2252.80;;;;;;5096959;28;20035;-79
2023/01/31 10:33:44;;;;;;;37.15;22.75;;;128.20;2252.80;;;;;;5096681;28;20059;-81
2023/01/31 10:36:26;;;;;;;30.05;17.00;;;128.10;2252.80;;;;;;5097049;28;20072;-82
2023/01/31 10:39:14;;;;;;;28.70;16.27;;;128.10;2252.80;;;;;;5096843;28;20122;-82
2023/01/31 10:42:01;;;;;;;46.25;28.73;;;128.10;2252.80;;;;;;5100682;28;20380;-79
2023/01/31 10:45:00;;;;;;;36.03;21.88;;;128.20;2252.80;;;;;;5101235;28;20052;-79
2023/01/31 10:47:35;;;;;;;24.35;15.40;;;128.20;2252.80;;;;;;5098009;28;20016;-80
2023/01/31 10:50:13;;;;;;;65.65;40.45;;;128.20;2252.80;;;;;;5096862;28;20031;-81
2023/01/31 10:53:09;;;;;;;38.47;24.02;;;128.20;2252.80;;;;;;5096743;28;20468;-81
2023/01/31 10:55:46;;;;;;;32.25;19.42;;;128.20;2252.80;;;;;;5097560;28;20024;-84
2023/01/31 10:58:15;;;;;;;21.77;13.77;;;128.20;2252.80;;;;;;5097493;28;20028;-81
2023/01/31 11:00:41;;;;;;;29.60;17.25;;;128.20;2252.80;;;;;;5096437;28;20027;-79
2023/01/31 11:03:10;;;;;;;28.63;16.23;;;128.20;2252.80;;;;;;5095872;28;20032;-79
2023/01/31 11:05:45;;;;;;;19.73;11.82;;;128.40;2252.80;;;;;;5096317;28;20502;-81
2023/01/31 11:08:56;;;;;;;23.17;12.40;;;128.50;2252.80;;;;;;5097228;28;20086;-83
2023/01/31 11:11:24;;;;;;;22.75;13.82;;;128.60;2252.80;;;;;;4998158;28;20050;-85
2023/01/31 11:14:04;;;;;;;18.55;9.35;;;128.60;2252.80;;;;;;4998754;28;20029;-83
2023/01/31 11:16:36;;;;;;;21.33;14.35;;;128.60;2252.80;;;;;;5058131;28;20032;-80
2023/01/31 11:19:24;;;;;;;24.60;14.60;;;128.60;2252.80;;;;;;5095824;28;20034;-78
2023/01/31 11:21:51;;;;;;;23.15;16.23;;;128.60;2252.80;;;;;;5097176;28;20486;-79
2023/01/31 11:24:21;;;;;;;22.17;11.90;;;128.60;2252.80;;;;;;5095797;28;20089;-79
2023/01/31 11:26:54;;;;;;;23.70;15.18;;;128.60;2252.80;;;;;;5096661;28;20035;-84
2023/01/31 11:29:26;;;;;;;17.23;10.35;;;128.70;2252.80;;;;;;5095766;28;20493;-80
2023/01/31 11:31:54;;;;;;;26.27;16.05;;;128.70;2252.80;;;;;;5095757;28;20036;-78
2023/01/31 11:34:32;;;;;;;19.17;11.80;;;128.60;2252.80;;;;;;5095713;28;20031;-79
2023/01/31 11:37:16;;;;;;;23.23;13.25;;;128.60;2252.80;;;;;;5095229;28;20051;-83
2023/01/31 11:40:00;;;;;;;27.10;16.52;;;128.50;2252.80;;;;;;5094433;28;20024;-81
2023/01/31 11:42:27;;;;;;;56.85;35.83;;;128.50;2252.80;;;;;;5095283;28;20024;-81
2023/01/31 11:45:01;;;;;;;17.13;11.40;;;128.50;2252.80;;;;;;5094986;28;20464;-80
2023/01/31 11:47:42;;;;;;;21.10;10.88;;;128.50;2252.80;;;;;;5096561;28;20031;-79
2023/01/31 11:50:23;;;;;;;21.00;12.30;;;128.50;2252.80;;;;;;5095192;28;20020;-79
2023/01/31 11:53:12;;;;;;;15.48;10.57;;;128.50;2252.80;;;;;;5096391;28;20029;-79
2023/01/31 11:55:39;;;;;;;22.40;11.95;;;128.50;2252.80;;;;;;5095507;28;20165;-78
2023/01/31 11:58:35;;;;;;;13.45;7.82;;;128.50;2252.80;;;;;;5095013;28;20024;-81
2023/01/31 12:01:05;;;;;;;20.83;12.70;;;128.50;2252.80;;;;;;5094698;28;20027;-76
2023/01/31 12:03:31;;;;;;;20.00;11.63;;;128.50;2252.80;;;;;;5095129;28;20476;-79
2023/01/31 12:06:06;;;;;;;20.45;11.55;;;128.60;2252.80;;;;;;5094771;28;20486;-81
2023/01/31 12:08:42;;;;;;;18.83;11.02;;;128.60;2252.80;;;;;;5095023;28;20028;-81
2023/01/31 12:11:20;;;;;;;8.32;5.00;;;128.60;2252.80;;;;;;5094323;28;20051;-79
2023/01/31 12:13:48;;;;;;;15.52;10.50;;;128.60;2252.80;;;;;;5096570;28;20032;-81
2023/01/31 12:16:17;;;;;;;13.73;8.95;;;128.60;2252.80;;;;;;5094817;28;20375;-77
2023/01/31 12:18:56;;;;;;;19.98;12.25;;;128.70;2252.80;;;;;;5094363;28;20384;-77
2023/01/31 12:21:22;;;;;;;28.45;18.52;;;128.70;2252.80;;;;;;5094832;28;20035;-84
2023/01/31 12:24:14;;;;;;;19.40;14.20;;;128.70;2252.80;;;;;;5094703;28;20032;-81
2023/01/31 12:26:42;;;;;;;24.65;14.50;;;128.80;2252.80;;;;;;5094810;28;20086;-78
2023/01/31 12:29:45;;;;;;;35.10;23.70;;;128.80;2252.80;;;;;;5094502;28;20047;-77
2023/01/31 12:32:36;;;;;;;32.30;21.20;;;128.80;2252.80;;;;;;5095861;28;20032;-78